全部
Gunnedah Airport (Gunnedah, New South Wales) GUH 天气
|
Gunnedah, New South Wales (GUH / YGDH)
晴天
微风 |
|
21 °C |
There is no TAF data available at GUH or any nearby airports.
GUH近期METAR历史数据
| Date | Time (AEST) | Flight Rules | Wind Dir. | Speed | Type | Height AGL (ft) | Visibility | Temp (°C) | Temp (°F) | Dew Point (°C) | Dew Point (°F) | Rel. Humid. | Pressure | Density Altitude | Remarks |
|---|---|---|---|---|---|---|---|---|---|---|---|---|---|---|---|
| 03-五月 | 09:00 | n/a | 100° | 10 kt | Missing | 21° | 69° | 10° | 50° | 49% | 1022 mb | 1,323 ft | |||
| 03-五月 | 08:00 | n/a | 130° | 8 kt | Missing | 18° | 64° | 10° | 50° | 59% | 1022 mb | 963 ft | |||
| 03-五月 | 07:00 | n/a | 120° | 8 kt | Missing | 16° | 60° | 10° | 50° | 68% | 1021 mb | 753 ft | |||
| 03-五月 | 06:00 | n/a | 120° | 7 kt | Missing | 16° | 60° | 10° | 50° | 68% | 1021 mb | 753 ft | |||
| 03-五月 | 05:00 | n/a | 120° | 7 kt | Missing | 16° | 60° | 9° | 48° | 63% | 1021 mb | 753 ft | |||
| 03-五月 | 04:00 | n/a | 110° | 9 kt | Missing | 17° | 62° | 9° | 48° | 59% | 1020 mb | 902 ft | |||
| 03-五月 | 03:00 | n/a | 120° | 8 kt | Missing | 18° | 64° | 9° | 48° | 56% | 1021 mb | 993 ft | |||
| 03-五月 | 02:00 | n/a | 120° | 5 kt | Missing | 17° | 62° | 9° | 48° | 59% | 1021 mb | 873 ft | |||
| 03-五月 | 01:00 | n/a | 100° | 4 kt | Missing | 18° | 64° | 10° | 50° | 59% | 1021 mb | 993 ft | |||
| 03-五月 | 00:00 | n/a | 110° | 5 kt | Missing | 18° | 64° | 10° | 50° | 59% | 1021 mb | 993 ft | |||
| 02-五月 | 23:00 | n/a | 90° | 6 kt | Missing | 19° | 66° | 9° | 48° | 52% | 1021 mb | 1,113 ft | |||
| 02-五月 | 22:00 | n/a | 90° | 10 kt | Missing | 20° | 68° | 10° | 50° | 53% | 1021 mb | 1,233 ft | |||
| 02-五月 | 21:00 | n/a | 120° | 7 kt | Missing | 21° | 69° | 9° | 48° | 46% | 1021 mb | 1,353 ft | |||
| 02-五月 | 20:00 | n/a | 110° | 6 kt | Missing | 21° | 69° | 8° | 46° | 43% | 1021 mb | 1,353 ft | |||
| 02-五月 | 19:00 | n/a | 110° | 8 kt | Missing | 22° | 71° | 8° | 46° | 41% | 1020 mb | 1,502 ft | |||
| 02-五月 | 18:00 | n/a | 120° | 8 kt | Missing | 23° | 73° | 7° | 44° | 36% | 1019 mb | 1,652 ft | |||
| 02-五月 | 17:00 | n/a | 110° | 8 kt | Missing | 26° | 78° | 9° | 48° | 34% | 1019 mb | 2,012 ft | |||
| 02-五月 | 16:00 | n/a | 100° | 8 kt | Missing | 27° | 80° | 9° | 48° | 32% | 1019 mb | 2,132 ft | |||
| 02-五月 | 15:00 | n/a | 40° | 6 kt | Missing | 28° | 82° | 9° | 48° | 30% | 1019 mb | 2,252 ft | |||
| 02-五月 | 14:00 | n/a | 110° | 5 kt | Missing | 28° | 82° | 10° | 50° | 32% | 1019 mb | 2,252 ft | |||
| 02-五月 | 13:00 | n/a | 80° | 10 kt | Missing | 27° | 80° | 10° | 50° | 34% | 1020 mb | 2,102 ft | |||
| 02-五月 | 12:00 | n/a | 80° | 11 kt | Missing | 26° | 78° | 10° | 50° | 37% | 1021 mb | 1,953 ft | |||
| 02-五月 | 11:00 | n/a | 80° | 11 kt | Missing | 26° | 78° | 11° | 51° | 39% | 1023 mb | 1,894 ft | |||
| 02-五月 | 10:00 | n/a | 100° | 11 kt | Missing | 24° | 75° | 12° | 53° | 47% | 1024 mb | 1,624 ft |
登录
| 您的浏览器不支持. 升级您的浏览器 |
